Cedar Rapids, IA (52410)

5:50 PM CST on March 05, 2015 (GMT -0600)
NorthEast Cedar Rapids | Change Station
CLOSE
Current Station
Personal Weather Station
Location: Cedar Rapids, IA
Elevation: 892 ft
Nearby Weather Stations

Elev 892 ft 42.01 °N, 91.67 °W | Updated 1 minute ago

Clear
Clear
8.2 °F
Feels Like 8 °F
N
0.7
Wind Variable Wind from NNW
Gusts 2.2 mph

Today
High -- | Low -- °F
--% Chance of Precip.
Yesterday
High -- | Low -- °F
Precip. -- in
6:35 AM 6:01 PM
Full, 100% visible
Pressure 30.60 in
Visibility 10.0 miles
Clouds Clear
Windchill 8 °F
Dew Point -15 °F
Humidity 33%
Rainfall in
Snow Depth Not available.
UV 1 out of 12
Pollen .50 out of 12
Air Quality Not available.
Flu Activity Not available.
METAR KCID 052252Z 29005KT 10SM CLR M13/M18 A3052 RMK AO2 SLP360 T11281178

More Conditions Fewer Conditions

Pressure 30.60 in
Visibility 10.0 miles
Clouds Clear
Windchill 8 °F
Dew Point -15 °F
Humidity 33%
Rainfall in
Snow Depth Not available.
UV 1 out of 12
Pollen .50 out of 12
Air Quality Not available.
Flu Activity Not available.
METAR KCID 052252Z 29005KT 10SM CLR M13/M18 A3052 RMK AO2 SLP360 T11281178

More Conditions Fewer Conditions

10-Day Weather Forecast

Almanac

Astronomy

Mar. 05, 2015 Rise Set
Actual Time
Civil Twilight
Nautical Twilight
Astronomical Twilight
Moon
Length of Visible Light
Length of Day
Tomorrow will be .
, % of the Moon is Illuminated

Today's Extremes

State Highs State Lows

Community

WunderPhotos

Upload Photos

1,803,057 photos uploaded!

WunderBlogs® & News

Nearby

Air Quality

  Air Quality AQ Index Pollutant
Not available.

Snow Depth

Station Depth Elevation

Earthquake Activity

City Distance Mag. Time & Date
Minimum magnitude displayed is 2.5.

Coastal Water Temperatures

Place Temperature

Nearby Weather Stations